createdAt,value
2019-04-22T00:00:53.562Z,4.62
2019-04-22T00:03:22.665Z,4.53
2019-04-22T00:06:14.691Z,4.35
2019-04-22T00:08:42.851Z,4.08
2019-04-22T00:11:21.244Z,4.30
2019-04-22T00:16:16.466Z,4.17
2019-04-22T00:19:01.748Z,4.40
2019-04-22T00:21:20.766Z,5.37
2019-04-22T00:23:51.777Z,4.42
2019-04-22T00:26:23.968Z,4.42
2019-04-22T00:28:53.290Z,4.58
2019-04-22T00:31:28.567Z,3.95
2019-04-22T00:33:57.714Z,4.55
2019-04-22T00:36:27.588Z,4.78
2019-04-22T00:38:58.773Z,4.45
2019-04-22T00:41:35.770Z,4.47
2019-04-22T00:44:08.805Z,4.10
2019-04-22T00:46:36.070Z,4.08
2019-04-22T00:49:43.886Z,4.12
2019-04-22T00:51:33.773Z,4.40
2019-04-22T00:54:04.239Z,4.30
2019-04-22T00:56:32.627Z,3.80
2019-04-22T00:59:01.354Z,4.40
2019-04-22T01:01:36.893Z,4.12
2019-04-22T01:04:12.548Z,4.08
2019-04-22T01:06:30.712Z,4.20
2019-04-22T01:09:13.668Z,4.00
2019-04-22T01:11:33.741Z,4.55
2019-04-22T01:14:09.152Z,4.42
2019-04-22T01:16:37.920Z,4.95
2019-04-22T01:19:06.527Z,4.42
2019-04-22T01:21:41.013Z,4.55
2019-04-22T01:24:14.035Z,4.28
2019-04-22T01:26:34.604Z,4.17
2019-04-22T01:29:02.457Z,4.72
2019-04-22T01:31:25.109Z,4.33
2019-04-22T01:34:05.495Z,4.80
2019-04-22T01:36:42.329Z,3.95
2019-04-22T01:39:18.161Z,4.12
2019-04-22T01:41:54.866Z,4.47
2019-04-22T01:44:22.622Z,4.35
2019-04-22T01:47:06.674Z,5.47
2019-04-22T01:49:25.750Z,5.08
2019-04-22T01:54:29.787Z,5.03
2019-04-22T01:56:52.575Z,4.35
2019-04-22T01:59:15.622Z,5.33
2019-04-22T02:04:30.398Z,4.80
2019-04-22T02:06:59.161Z,5.47
2019-04-22T02:09:33.112Z,4.72
2019-04-22T02:14:26.912Z,5.25
2019-04-22T02:16:58.036Z,4.78
2019-04-22T02:19:30.342Z,5.22
2019-04-22T02:21:56.484Z,5.37
2019-04-22T02:24:33.355Z,5.08
2019-04-22T02:26:54.571Z,5.17
2019-04-22T02:29:32.617Z,6.17
2019-04-22T02:32:10.624Z,5.37
2019-04-22T02:37:02.873Z,6.50
2019-04-22T02:44:40.992Z,6.37
2019-04-22T02:47:20.473Z,6.72
2019-04-22T02:50:00.813Z,5.90
2019-04-22T02:52:10.016Z,6.30
2019-04-22T02:59:42.393Z,5.97
2019-04-22T03:02:14.404Z,5.28
2019-04-22T03:04:49.165Z,6.40
2019-04-22T03:07:10.845Z,5.92
2019-04-22T03:09:40.365Z,5.72
2019-04-22T03:17:15.966Z,5.60
2019-04-22T03:19:57.543Z,5.30
2019-04-22T03:22:28.042Z,5.55
2019-04-22T03:24:46.327Z,5.90
2019-04-22T03:27:16.253Z,6.10
2019-04-22T03:30:41.734Z,6.70
2019-04-22T03:35:36.919Z,6.78
2019-04-22T03:37:49.147Z,6.92
2019-04-22T03:42:51.901Z,7.20
2019-04-22T03:50:20.690Z,8.70
2019-04-22T03:52:47.189Z,8.00
2019-04-22T03:55:16.140Z,7.45
2019-04-22T04:02:54.217Z,7.50
2019-04-22T04:08:03.868Z,6.53
2019-04-22T04:10:32.247Z,7.20
2019-04-22T04:12:58.167Z,8.13
2019-04-22T04:15:28.434Z,6.92
2019-04-22T04:17:51.966Z,6.80
2019-04-22T04:23:02.517Z,7.35
2019-04-22T04:30:31.494Z,7.47
2019-04-22T04:32:59.080Z,7.10
2019-04-22T04:35:33.161Z,6.58
2019-04-22T04:37:55.832Z,6.60
2019-04-22T04:42:46.224Z,7.03
2019-04-22T04:45:40.860Z,7.37
2019-04-22T04:47:57.867Z,6.97
2019-04-22T04:53:14.538Z,7.65
2019-04-22T05:05:29.356Z,7.75
2019-04-22T05:08:12.755Z,7.47
2019-04-22T05:10:47.830Z,8.05
2019-04-22T05:13:01.878Z,8.95
2019-04-22T05:15:29.714Z,8.63
2019-04-22T05:18:07.219Z,8.00
2019-04-22T05:20:42.658Z,8.83
2019-04-22T05:22:51.602Z,8.73
2019-04-22T05:25:22.238Z,8.80
2019-04-22T05:28:11.853Z,8.00
2019-04-22T05:30:26.716Z,8.50
2019-04-22T05:32:54.156Z,8.35
2019-04-22T05:35:26.309Z,8.45
2019-04-22T05:38:04.845Z,8.38
2019-04-22T05:40:28.272Z,7.95
2019-04-22T05:43:02.528Z,8.60
2019-04-22T05:45:33.144Z,8.43
2019-04-22T05:50:27.013Z,8.15
2019-04-22T05:53:14.967Z,8.30
2019-04-22T05:55:35.947Z,7.75
2019-04-22T05:58:10.789Z,7.67
2019-04-22T06:01:05.579Z,8.00
2019-04-22T06:03:23.505Z,7.12
2019-04-22T06:05:47.665Z,8.48
2019-04-22T06:08:10.418Z,7.53
2019-04-22T06:10:48.568Z,8.45
2019-04-22T06:13:14.662Z,7.72
2019-04-22T06:15:40.374Z,8.05
2019-04-22T06:18:22.544Z,7.85
2019-04-22T06:23:25.733Z,7.12
2019-04-22T06:28:32.083Z,7.50
2019-04-22T06:30:57.327Z,8.13
2019-04-22T06:33:31.614Z,7.78
2019-04-22T06:35:58.473Z,7.47
2019-04-22T06:41:04.499Z,7.80
2019-04-22T06:43:33.821Z,7.37
2019-04-22T06:45:58.071Z,7.58
2019-04-22T06:48:30.113Z,7.28
2019-04-22T06:50:53.949Z,7.62
2019-04-22T06:53:33.219Z,8.15
2019-04-22T06:55:59.752Z,8.48
2019-04-22T06:58:28.911Z,8.23
2019-04-22T07:01:19.320Z,8.35
2019-04-22T07:03:44.175Z,8.10
2019-04-22T07:05:59.056Z,8.05
2019-04-22T07:09:00.854Z,8.38
2019-04-22T07:10:56.626Z,8.15
2019-04-22T07:16:03.987Z,9.33
2019-04-22T07:21:01.257Z,8.65
2019-04-22T07:23:37.490Z,7.62
2019-04-22T07:26:04.327Z,8.00
2019-04-22T07:28:29.492Z,8.00
2019-04-22T07:31:08.739Z,8.05
2019-04-22T07:33:41.092Z,8.70
2019-04-22T07:36:42.894Z,8.33
2019-04-22T07:38:31.301Z,8.98
2019-04-22T07:41:05.666Z,7.97
2019-04-22T07:43:52.611Z,9.20
2019-04-22T07:46:10.963Z,8.10
2019-04-22T07:48:49.232Z,7.30
2019-04-22T07:51:07.675Z,7.22
2019-04-22T07:53:33.492Z,7.83
2019-04-22T07:56:16.242Z,8.08
2019-04-22T07:58:58.243Z,10.65
2019-04-22T08:01:19.126Z,8.20
2019-04-22T08:03:51.767Z,8.23
2019-04-22T08:08:44.795Z,7.90
2019-04-22T08:11:30.256Z,8.18
2019-04-22T08:13:42.554Z,7.67
2019-04-22T08:16:11.957Z,7.75
2019-04-22T08:18:42.287Z,7.95
2019-04-22T08:21:13.673Z,7.65
2019-04-22T08:24:11.468Z,7.97
2019-04-22T08:26:11.396Z,8.13
2019-04-22T08:28:46.285Z,7.47
2019-04-22T08:31:27.042Z,7.60
2019-04-22T08:33:51.838Z,9.05
2019-04-22T08:36:18.076Z,7.75
2019-04-22T08:38:52.871Z,7.40
2019-04-22T08:41:27.239Z,7.22
2019-04-22T08:43:57.917Z,8.15
2019-04-22T08:46:27.131Z,7.50
2019-04-22T08:48:57.728Z,7.92
2019-04-22T08:51:25.296Z,7.75
2019-04-22T08:54:00.433Z,8.20
2019-04-22T08:59:01.807Z,7.45
2019-04-22T09:01:27.061Z,7.80
2019-04-22T09:03:58.437Z,8.80
2019-04-22T09:06:47.990Z,7.70
2019-04-22T09:09:02.101Z,8.05
2019-04-22T09:11:35.528Z,8.35
2019-04-22T09:14:04.511Z,9.03
2019-04-22T09:18:59.246Z,8.40
2019-04-22T09:21:32.775Z,8.95
2019-04-22T09:24:04.998Z,8.30
2019-04-22T09:26:37.275Z,8.10
2019-04-22T09:29:07.431Z,8.73
2019-04-22T09:31:37.248Z,9.20
2019-04-22T09:33:59.084Z,8.48
2019-04-22T09:36:36.057Z,8.70
2019-04-22T09:39:01.695Z,9.00
2019-04-22T09:41:40.163Z,8.85
2019-04-22T09:44:02.365Z,8.48
2019-04-22T09:49:11.917Z,8.60
2019-04-22T09:51:38.181Z,8.13
2019-04-22T09:54:19.420Z,9.08
2019-04-22T09:59:07.560Z,9.60
2019-04-22T10:02:08.412Z,9.28
2019-04-22T10:04:07.229Z,8.93
2019-04-22T10:06:41.123Z,9.08
2019-04-22T10:09:32.853Z,9.35
2019-04-22T10:14:12.368Z,9.68
2019-04-22T10:16:43.640Z,9.43
2019-04-22T10:19:16.702Z,8.98
2019-04-22T10:21:54.479Z,9.28
2019-04-22T10:24:13.811Z,9.10
2019-04-22T10:26:43.959Z,9.73
2019-04-22T10:29:17.044Z,8.95
2019-04-22T10:31:52.436Z,21.90
2019-04-22T10:34:09.276Z,8.95
2019-04-22T10:36:25.626Z,9.93
2019-04-22T10:38:54.800Z,8.90
2019-04-22T10:41:23.821Z,9.73
2019-04-22T10:43:52.990Z,9.40
2019-04-22T10:46:22.203Z,9.40
2019-04-22T10:48:52.628Z,9.15
2019-04-22T10:51:22.339Z,10.03
2019-04-22T10:53:51.321Z,9.58
2019-04-22T10:56:20.927Z,10.03
2019-04-22T10:58:50.810Z,8.45
2019-04-22T11:01:21.094Z,9.20
2019-04-22T11:03:51.081Z,8.83
2019-04-22T11:06:21.317Z,9.20
2019-04-22T11:08:54.420Z,8.75
2019-04-22T11:11:32.639Z,8.68
2019-04-22T11:13:51.923Z,9.03
2019-04-22T11:16:21.437Z,9.43
2019-04-22T11:18:51.674Z,9.20
2019-04-22T11:21:20.609Z,8.98
2019-04-22T11:23:50.411Z,8.50
2019-04-22T11:26:19.865Z,9.75
2019-04-22T11:28:49.655Z,9.43
2019-04-22T11:31:18.749Z,9.35
2019-04-22T11:33:48.301Z,9.18
2019-04-22T11:36:17.845Z,9.80
2019-04-22T11:38:54.107Z,9.15
2019-04-22T11:41:17.239Z,9.10
2019-04-22T11:43:47.350Z,8.30
2019-04-22T11:46:17.640Z,8.55
2019-04-22T11:48:47.740Z,9.28
2019-04-22T11:51:18.022Z,9.25
2019-04-22T11:53:47.116Z,8.90
2019-04-22T11:56:16.810Z,8.85
2019-04-22T11:58:46.958Z,8.98
2019-04-22T12:01:16.988Z,9.60
2019-04-22T12:03:46.338Z,8.50
2019-04-22T12:06:15.797Z,9.15
2019-04-22T12:08:45.934Z,9.13
2019-04-22T12:11:16.612Z,9.58
2019-04-22T12:13:46.282Z,9.08
2019-04-22T12:16:15.416Z,9.18
2019-04-22T12:18:44.980Z,8.95
2019-04-22T12:21:15.154Z,9.40
2019-04-22T12:23:45.210Z,8.40
2019-04-22T12:26:18.521Z,9.58
2019-04-22T12:28:45.080Z,9.05
2019-04-22T12:31:15.363Z,8.30
2019-04-22T12:33:45.417Z,9.63
2019-04-22T12:36:14.944Z,9.25
2019-04-22T12:38:45.191Z,9.25
2019-04-22T12:41:15.897Z,9.43
2019-04-22T12:43:45.102Z,9.88
2019-04-22T12:46:14.497Z,9.30
2019-04-22T12:48:43.514Z,9.35
2019-04-22T12:51:13.347Z,10.28
2019-04-22T12:53:42.321Z,10.03
2019-04-22T12:56:12.614Z,9.65
2019-04-22T12:58:41.652Z,10.03
2019-04-22T13:01:10.931Z,9.18
2019-04-22T13:03:40.279Z,9.75
2019-04-22T13:06:09.947Z,9.00
2019-04-22T13:08:38.840Z,8.80
2019-04-22T13:11:12.147Z,8.75
2019-04-22T13:13:38.740Z,9.38
2019-04-22T13:16:09.031Z,8.15
2019-04-22T13:18:44.357Z,8.68
2019-04-22T13:21:08.775Z,8.23
2019-04-22T13:23:39.016Z,8.95
2019-04-22T13:26:07.857Z,8.20
2019-04-22T13:28:36.899Z,8.75
2019-04-22T13:31:07.778Z,8.80
2019-04-22T13:33:36.968Z,8.50
2019-04-22T13:36:06.113Z,8.68
2019-04-22T13:38:35.389Z,7.97
2019-04-22T13:41:14.835Z,9.08
2019-04-22T13:43:34.886Z,8.35
2019-04-22T13:46:04.345Z,8.95
2019-04-22T13:48:56.226Z,9.50
2019-04-22T13:51:43.270Z,9.10
2019-04-22T13:55:05.571Z,9.35
2019-04-22T13:56:24.908Z,9.00
2019-04-22T13:58:48.455Z,8.90
2019-04-22T14:01:07.432Z,8.43
2019-04-22T14:03:54.572Z,9.33
2019-04-22T14:06:24.840Z,9.35
2019-04-22T14:08:53.932Z,9.53
2019-04-22T14:11:34.151Z,9.38
2019-04-22T14:13:53.432Z,11.12
2019-04-22T14:16:22.925Z,9.10
2019-04-22T14:18:52.015Z,9.73
2019-04-22T14:21:21.118Z,9.08
2019-04-22T14:23:50.943Z,8.90
2019-04-22T14:26:20.001Z,9.23
2019-04-22T14:28:49.995Z,9.33
2019-04-22T14:31:20.237Z,8.60
2019-04-22T14:33:54.735Z,9.10
2019-04-22T14:36:21.155Z,10.13
2019-04-22T14:38:50.238Z,9.65
2019-04-22T14:41:35.722Z,9.53
2019-04-22T14:44:49.480Z,9.28
2019-04-22T14:46:53.486Z,9.15
2019-04-22T14:49:19.413Z,9.65
2019-04-22T14:51:47.013Z,8.80
2019-04-22T14:54:09.755Z,9.03
2019-04-22T14:56:22.418Z,9.15
2019-04-22T14:58:51.373Z,10.18
2019-04-22T15:01:21.112Z,9.85
2019-04-22T15:03:50.383Z,9.70
2019-04-22T15:06:20.147Z,9.70
2019-04-22T15:08:49.053Z,9.70
2019-04-22T15:11:19.304Z,8.40
2019-04-22T15:13:49.542Z,8.78
2019-04-22T15:16:20.211Z,9.43
2019-04-22T15:19:07.670Z,9.68
2019-04-22T15:21:36.840Z,9.25
2019-04-22T15:24:25.229Z,9.63
2019-04-22T15:26:56.311Z,9.35
2019-04-22T15:29:25.450Z,9.50
2019-04-22T15:31:55.692Z,9.30
2019-04-22T15:34:24.949Z,9.15
2019-04-22T15:36:54.112Z,8.50
2019-04-22T15:39:23.221Z,10.13
2019-04-22T15:42:03.075Z,9.60
2019-04-22T15:44:24.015Z,9.38
2019-04-22T15:46:53.276Z,9.08
2019-04-22T15:49:22.386Z,9.75
2019-04-22T15:51:54.082Z,10.08
2019-04-22T15:54:23.494Z,9.20
2019-04-22T15:56:52.701Z,9.28
2019-04-22T15:59:41.179Z,8.73
2019-04-22T16:01:53.182Z,10.93
2019-04-22T16:04:23.013Z,11.05
2019-04-22T16:06:52.740Z,11.93
2019-04-22T16:09:22.790Z,12.63
2019-04-22T16:11:51.939Z,11.68
2019-04-22T16:14:31.173Z,12.33
2019-04-22T16:16:52.560Z,11.43
2019-04-22T16:19:21.582Z,11.50
2019-04-22T16:21:56.471Z,12.05
2019-04-22T16:24:40.277Z,9.78
2019-04-22T16:27:18.562Z,10.55
2019-04-22T16:29:47.509Z,11.45
2019-04-22T16:32:16.415Z,12.28
2019-04-22T16:34:45.776Z,11.38
2019-04-22T16:37:14.914Z,10.55
2019-04-22T16:39:46.415Z,10.30
2019-04-22T16:42:26.940Z,10.05
2019-04-22T16:44:47.409Z,10.48
2019-04-22T16:47:15.526Z,10.35
2019-04-22T16:49:45.707Z,10.05
2019-04-22T16:52:16.136Z,10.18
2019-04-22T16:54:46.475Z,9.33
2019-04-22T16:57:15.851Z,10.25
2019-04-22T16:59:44.820Z,9.75
2019-04-22T17:02:24.684Z,10.13
2019-04-22T17:04:55.898Z,10.03
2019-04-22T17:07:24.816Z,9.93
2019-04-22T17:09:53.630Z,9.65
2019-04-22T17:12:23.773Z,9.48
2019-04-22T17:14:58.617Z,10.28
2019-04-22T17:17:24.523Z,9.88
2019-04-22T17:19:53.515Z,9.83
2019-04-22T17:22:23.745Z,10.48
2019-04-22T17:24:53.956Z,10.43
2019-04-22T17:27:24.293Z,10.35
2019-04-22T17:29:54.534Z,10.38
2019-04-22T17:32:25.401Z,9.78
2019-04-22T17:34:54.108Z,10.98
2019-04-22T17:37:26.317Z,9.85
2019-04-22T17:40:10.681Z,9.53
2019-04-22T17:42:42.482Z,12.47
2019-04-22T17:45:23.099Z,16.12
2019-04-22T17:48:02.931Z,16.97
2019-04-22T17:50:37.863Z,13.98
2019-04-22T17:53:15.199Z,22.62
2019-04-22T17:55:41.540Z,21.95
2019-04-22T17:58:07.936Z,31.52
2019-04-22T18:00:36.338Z,24.60
2019-04-22T18:03:03.097Z,27.98
2019-04-22T18:05:30.628Z,20.27
2019-04-22T18:08:13.913Z,18.90
2019-04-22T18:10:44.088Z,17.42
2019-04-22T18:13:20.492Z,19.20
2019-04-22T18:15:45.542Z,19.60
2019-04-22T18:18:18.677Z,20.60
2019-04-22T18:20:41.164Z,23.30
2019-04-22T18:23:04.285Z,24.75
2019-04-22T18:25:46.800Z,39.08
2019-04-22T18:28:23.845Z,39.25
2019-04-22T18:30:37.316Z,30.97
2019-04-22T18:33:21.177Z,29.40
2019-04-22T18:35:45.744Z,50.40
2019-04-22T18:38:28.009Z,41.80
2019-04-22T18:40:53.582Z,37.58
2019-04-22T18:43:21.950Z,28.15
2019-04-22T18:46:00.807Z,24.18
2019-04-22T18:48:12.460Z,24.23
2019-04-22T18:51:09.596Z,25.15
2019-04-22T18:53:44.383Z,26.23
2019-04-22T18:56:16.629Z,27.48
2019-04-22T18:58:36.697Z,23.40
2019-04-22T19:00:54.862Z,21.20
2019-04-22T19:03:28.289Z,22.07
2019-04-22T19:06:24.774Z,22.17
2019-04-22T19:08:55.605Z,21.65
2019-04-22T19:11:17.543Z,22.42
2019-04-22T19:19:07.622Z,24.27
2019-04-22T19:21:16.311Z,24.35
2019-04-22T19:23:51.420Z,23.85
2019-04-22T19:26:30.843Z,23.90
2019-04-22T19:28:49.675Z,24.15
2019-04-22T19:31:27.099Z,23.30
2019-04-22T19:33:56.334Z,23.87
2019-04-22T19:36:20.772Z,22.65
2019-04-22T19:38:52.463Z,24.55
2019-04-22T19:41:24.319Z,23.05
2019-04-22T19:43:58.584Z,23.40
2019-04-22T19:46:22.108Z,26.37
2019-04-22T19:48:56.553Z,24.45
2019-04-22T19:51:27.989Z,26.12
2019-04-22T19:53:56.063Z,29.27
2019-04-22T19:56:21.203Z,26.00
2019-04-22T19:58:52.654Z,28.52
2019-04-22T20:01:41.829Z,27.42
2019-04-22T20:04:28.364Z,27.70
2019-04-22T20:06:59.396Z,34.20
2019-04-22T20:09:39.709Z,30.05
2019-04-22T20:12:01.179Z,32.63
2019-04-22T20:14:34.891Z,34.23
2019-04-22T20:16:54.821Z,32.55
2019-04-22T20:19:44.297Z,31.02
2019-04-22T20:22:03.494Z,31.45
2019-04-22T20:24:18.843Z,30.65
2019-04-22T20:27:04.163Z,31.12
2019-04-22T20:29:37.278Z,32.85
2019-04-22T20:32:05.588Z,35.68
2019-04-22T20:34:37.973Z,34.03
2019-04-22T20:37:10.728Z,39.35
2019-04-22T20:39:37.963Z,42.60
2019-04-22T20:42:17.806Z,40.90
2019-04-22T20:44:39.689Z,40.70
2019-04-22T20:47:05.630Z,42.05
2019-04-22T20:49:40.351Z,39.90
2019-04-22T20:52:13.638Z,38.83
2019-04-22T20:54:40.746Z,39.38
2019-04-22T20:57:07.178Z,37.75
2019-04-22T20:59:42.924Z,35.52
2019-04-22T21:02:07.919Z,35.10
2019-04-22T21:04:32.293Z,36.03
2019-04-22T21:07:06.995Z,35.03
2019-04-22T21:09:38.255Z,33.63
2019-04-22T21:12:12.183Z,35.05
2019-04-22T21:14:41.277Z,35.95
2019-04-22T21:17:15.671Z,36.17
2019-04-22T21:19:47.636Z,34.55
2019-04-22T21:22:14.674Z,42.05
2019-04-22T21:24:46.047Z,46.98
2019-04-22T21:27:20.893Z,41.58
2019-04-22T21:29:40.318Z,38.17
2019-04-22T21:32:17.485Z,38.63
2019-04-22T21:34:55.386Z,35.63
2019-04-22T21:37:20.831Z,36.98
2019-04-22T21:39:43.662Z,35.60
2019-04-22T21:42:15.928Z,36.42
2019-04-22T21:44:43.996Z,34.63
2019-04-22T21:47:26.151Z,35.95
2019-04-22T21:50:10.277Z,35.92
2019-04-22T21:52:24.486Z,34.35
2019-04-22T21:55:00.924Z,36.05
2019-04-22T21:57:27.932Z,35.20
2019-04-22T22:00:04.484Z,34.83
2019-04-22T22:02:31.429Z,35.00
2019-04-22T22:04:55.191Z,35.73
2019-04-22T22:07:17.283Z,35.70
2019-04-22T22:10:01.431Z,36.20
2019-04-22T22:12:36.140Z,35.58
2019-04-22T22:15:05.470Z,36.00
2019-04-22T22:17:31.110Z,36.77
2019-04-22T22:20:03.372Z,37.65
2019-04-22T22:22:45.445Z,37.55
2019-04-22T22:25:11.047Z,38.10
2019-04-22T22:27:37.434Z,37.75
2019-04-22T22:32:43.005Z,37.58
2019-04-22T22:35:06.742Z,41.30
2019-04-22T22:37:28.304Z,39.35
2019-04-22T22:39:55.595Z,37.65
2019-04-22T22:42:27.177Z,40.03
2019-04-22T22:45:02.327Z,42.85
2019-04-22T22:47:40.953Z,38.80
2019-04-22T22:50:09.061Z,39.35
2019-04-22T22:55:10.665Z,38.17
2019-04-22T22:57:44.704Z,38.58
2019-04-22T23:00:15.089Z,37.80
2019-04-22T23:02:47.220Z,36.50
2019-04-22T23:05:18.513Z,37.20
2019-04-22T23:07:47.529Z,37.70
2019-04-22T23:10:21.493Z,36.35
2019-04-22T23:12:51.493Z,38.48
2019-04-22T23:15:13.848Z,34.78
2019-04-22T23:17:28.123Z,36.00
2019-04-22T23:19:58.249Z,34.18
2019-04-22T23:22:36.138Z,33.88
2019-04-22T23:25:24.771Z,34.92
2019-04-22T23:27:55.292Z,34.98
2019-04-22T23:30:27.626Z,35.10
2019-04-22T23:33:09.847Z,32.85
2019-04-22T23:35:36.587Z,30.57
2019-04-22T23:38:07.538Z,30.88
2019-04-22T23:40:42.497Z,31.37
2019-04-22T23:43:22.227Z,29.95
2019-04-22T23:45:51.486Z,28.75
2019-04-22T23:48:20.660Z,30.23
2019-04-22T23:50:55.870Z,30.60
2019-04-22T23:53:47.959Z,30.37
2019-04-22T23:56:01.799Z,30.75
2019-04-22T23:58:47.270Z,32.30
